createdAt,value
2023-03-04T00:02:26.591Z,59.40
2023-03-04T00:04:53.370Z,59.23
2023-03-04T00:07:20.128Z,59.56
2023-03-04T00:09:47.271Z,59.59
2023-03-04T00:12:14.117Z,59.50
2023-03-04T00:14:41.419Z,59.36
2023-03-04T00:17:11.390Z,59.60
2023-03-04T00:19:38.226Z,59.51
2023-03-04T00:22:05.107Z,59.34
2023-03-04T00:24:32.494Z,59.40
2023-03-04T00:26:59.584Z,59.59
2023-03-04T00:29:26.745Z,59.62
2023-03-04T00:31:53.689Z,59.12
2023-03-04T00:34:20.777Z,59.75
2023-03-04T00:36:47.559Z,59.39
2023-03-04T00:39:14.598Z,59.48
2023-03-04T00:41:41.394Z,59.38
2023-03-04T00:44:08.375Z,59.28
2023-03-04T00:46:35.174Z,59.59
2023-03-04T00:49:01.991Z,59.67
2023-03-04T00:51:28.776Z,59.42
2023-03-04T00:53:55.585Z,59.48
2023-03-04T00:56:22.359Z,59.58
2023-03-04T00:58:49.129Z,59.60
2023-03-04T01:01:15.967Z,59.42
2023-03-04T01:03:42.800Z,59.27
2023-03-04T01:06:09.604Z,59.64
2023-03-04T01:08:36.402Z,59.63
2023-03-04T01:11:03.292Z,59.19
2023-03-04T01:13:30.298Z,59.23
2023-03-04T01:15:57.726Z,59.68
2023-03-04T01:18:25.121Z,59.65
2023-03-04T01:20:51.985Z,59.49
2023-03-04T01:23:18.838Z,59.56
2023-03-04T01:25:45.636Z,59.65
2023-03-04T01:28:12.456Z,59.52
2023-03-04T01:30:39.329Z,59.52
2023-03-04T01:33:06.173Z,59.45
2023-03-04T01:35:36.052Z,59.58
2023-03-04T01:38:03.868Z,59.69
2023-03-04T01:40:32.111Z,59.46
2023-03-04T01:42:59.114Z,59.69
2023-03-04T01:45:25.986Z,59.45
2023-03-04T01:47:52.988Z,59.40
2023-03-04T01:50:33.669Z,59.70
2023-03-04T01:53:02.075Z,59.41
2023-03-04T01:55:31.156Z,59.49
2023-03-04T01:57:58.066Z,59.43
2023-03-04T02:00:27.866Z,59.45
2023-03-04T02:03:07.750Z,59.68
2023-03-04T02:05:37.561Z,59.60
2023-03-04T02:08:05.517Z,59.54
2023-03-04T02:10:32.668Z,59.56
2023-03-04T02:13:01.322Z,59.42
2023-03-04T02:15:29.506Z,59.48
2023-03-04T02:17:56.980Z,59.49
2023-03-04T02:20:47.860Z,59.67
2023-03-04T02:23:28.965Z,59.54
2023-03-04T02:26:29.742Z,59.66
2023-03-04T02:28:59.823Z,59.82
2023-03-04T02:31:38.479Z,59.76
2023-03-04T02:34:11.864Z,59.80
2023-03-04T02:36:39.513Z,59.73
2023-03-04T02:39:22.196Z,59.97
2023-03-04T02:41:52.308Z,59.86
2023-03-04T02:44:29.270Z,59.85
2023-03-04T02:46:57.070Z,59.87
2023-03-04T02:49:26.775Z,59.97
2023-03-04T02:52:08.261Z,59.92
2023-03-04T02:54:35.356Z,60.12
2023-03-04T02:57:06.133Z,60.14
2023-03-04T02:59:33.599Z,60.01
2023-03-04T03:02:00.475Z,60.30
2023-03-04T03:04:27.785Z,60.12
2023-03-04T03:06:54.920Z,60.00
2023-03-04T03:09:22.160Z,59.97
2023-03-04T03:11:48.936Z,60.24
2023-03-04T03:14:15.973Z,60.14
2023-03-04T03:16:43.337Z,60.15
2023-03-04T03:19:10.220Z,60.00
2023-03-04T03:21:37.015Z,60.23
2023-03-04T03:24:03.918Z,60.39
2023-03-04T03:26:30.699Z,60.24
2023-03-04T03:28:57.638Z,60.16
2023-03-04T03:31:24.408Z,60.13
2023-03-04T03:33:51.255Z,60.30
2023-03-04T03:36:18.317Z,60.53
2023-03-04T03:38:45.132Z,60.65
2023-03-04T03:41:11.928Z,60.44
2023-03-04T03:43:38.682Z,60.56
2023-03-04T03:46:05.679Z,60.13
2023-03-04T03:48:32.620Z,60.48
2023-03-04T03:50:59.372Z,60.51
2023-03-04T03:53:26.147Z,60.98
2023-03-04T03:55:52.901Z,60.58
2023-03-04T03:58:19.791Z,60.59
2023-03-04T04:00:46.555Z,60.79
2023-03-04T04:03:16.010Z,60.89
2023-03-04T04:05:42.904Z,60.96
2023-03-04T04:08:17.684Z,60.65
2023-03-04T04:10:44.889Z,60.63
2023-03-04T04:13:12.045Z,60.84
2023-03-04T04:15:38.933Z,60.92
2023-03-04T04:18:07.541Z,60.80
2023-03-04T04:20:35.299Z,60.81
2023-03-04T04:23:02.991Z,61.05
2023-03-04T04:25:29.804Z,60.82
2023-03-04T04:27:56.606Z,61.20
2023-03-04T04:30:23.401Z,61.13
2023-03-04T04:32:50.215Z,61.10
2023-03-04T04:35:17.189Z,61.33
2023-03-04T04:37:43.983Z,61.44
2023-03-04T04:40:11.609Z,61.57
2023-03-04T04:42:38.405Z,61.34
2023-03-04T04:45:05.995Z,61.30
2023-03-04T04:47:32.769Z,61.77
2023-03-04T04:49:59.539Z,61.74
2023-03-04T04:52:26.310Z,61.42
2023-03-04T04:54:53.100Z,61.53
2023-03-04T04:57:19.916Z,61.45
2023-03-04T04:59:46.701Z,61.61
2023-03-04T05:02:13.550Z,61.64
2023-03-04T05:04:40.301Z,61.90
2023-03-04T05:07:07.123Z,61.89
2023-03-04T05:09:34.092Z,61.84
2023-03-04T05:12:00.848Z,62.06
2023-03-04T05:14:27.639Z,61.63
2023-03-04T05:16:54.459Z,61.82
2023-03-04T05:19:21.690Z,61.76
2023-03-04T05:21:48.527Z,61.96
2023-03-04T05:24:15.294Z,62.05
2023-03-04T05:26:42.310Z,61.80
2023-03-04T05:29:09.186Z,62.13
2023-03-04T05:31:35.989Z,62.24
2023-03-04T05:34:02.810Z,62.26
2023-03-04T05:36:29.580Z,62.25
2023-03-04T05:38:56.358Z,62.20
2023-03-04T05:41:23.170Z,62.53
2023-03-04T05:43:50.750Z,62.26
2023-03-04T05:46:19.255Z,62.26
2023-03-04T05:48:46.212Z,62.46
2023-03-04T05:51:13.002Z,62.39
2023-03-04T05:53:41.544Z,62.30
2023-03-04T05:56:15.220Z,62.45
2023-03-04T05:58:42.163Z,62.37
2023-03-04T06:01:09.395Z,62.48
2023-03-04T06:03:36.600Z,62.67
2023-03-04T06:06:04.546Z,62.38
2023-03-04T06:08:31.873Z,62.67
2023-03-04T06:10:59.166Z,62.54
2023-03-04T06:13:26.317Z,62.44
2023-03-04T06:15:58.689Z,62.70
2023-03-04T06:18:27.358Z,62.52
2023-03-04T06:21:02.179Z,62.75
2023-03-04T06:23:30.012Z,63.00
2023-03-04T06:25:59.592Z,62.88
2023-03-04T06:28:26.789Z,63.04
2023-03-04T06:30:55.364Z,62.94
2023-03-04T06:33:22.639Z,62.91
2023-03-04T06:35:53.993Z,63.13
2023-03-04T06:38:20.824Z,62.82
2023-03-04T06:40:47.604Z,62.91
2023-03-04T06:43:14.375Z,63.22
2023-03-04T06:45:41.409Z,63.11
2023-03-04T06:48:08.279Z,62.85
2023-03-04T06:50:35.042Z,63.24
2023-03-04T06:53:01.884Z,63.22
2023-03-04T06:55:28.756Z,63.31
2023-03-04T06:57:55.504Z,63.15
2023-03-04T07:00:24.049Z,63.36
2023-03-04T07:02:52.500Z,63.24
2023-03-04T07:05:20.154Z,63.51
2023-03-04T07:07:46.969Z,63.62
2023-03-04T07:10:13.809Z,63.75
2023-03-04T07:12:40.603Z,63.81
2023-03-04T07:15:07.991Z,63.58
2023-03-04T07:17:34.895Z,63.63
2023-03-04T07:20:01.814Z,63.62
2023-03-04T07:22:28.594Z,63.70
2023-03-04T07:24:55.640Z,63.76
2023-03-04T07:27:22.430Z,63.83
2023-03-04T07:29:49.193Z,63.96
2023-03-04T07:32:16.123Z,64.03
2023-03-04T07:34:42.900Z,64.21
2023-03-04T07:37:09.938Z,64.06
2023-03-04T07:39:36.698Z,63.97
2023-03-04T07:42:03.526Z,64.32
2023-03-04T07:44:30.408Z,64.29
2023-03-04T07:46:57.215Z,64.36
2023-03-04T07:49:24.008Z,64.01
2023-03-04T07:51:50.789Z,63.92
2023-03-04T07:54:20.032Z,64.43
2023-03-04T07:56:46.977Z,64.34
2023-03-04T07:59:13.820Z,64.50
2023-03-04T08:01:40.613Z,64.54
2023-03-04T08:04:08.072Z,64.77
2023-03-04T08:06:35.814Z,64.31
2023-03-04T08:09:06.483Z,64.69
2023-03-04T08:11:36.061Z,64.57
2023-03-04T08:14:03.645Z,64.59
2023-03-04T08:16:30.480Z,64.63
2023-03-04T08:18:59.736Z,64.48
2023-03-04T08:21:27.765Z,64.17
2023-03-04T08:23:55.414Z,64.14
2023-03-04T08:26:35.433Z,64.29
2023-03-04T08:29:04.762Z,64.16
2023-03-04T08:31:32.365Z,64.56
2023-03-04T08:33:59.220Z,64.46
2023-03-04T08:36:26.034Z,64.42
2023-03-04T08:38:52.822Z,64.25
2023-03-04T08:41:20.285Z,64.54
2023-03-04T08:43:47.120Z,64.46
2023-03-04T08:46:14.091Z,64.44
2023-03-04T08:48:40.963Z,64.80
2023-03-04T08:51:13.713Z,65.04
2023-03-04T08:53:40.795Z,65.17
2023-03-04T08:56:08.159Z,65.28
2023-03-04T08:58:35.553Z,65.41
2023-03-04T09:01:03.715Z,65.29
2023-03-04T09:03:31.016Z,65.41
2023-03-04T09:05:57.794Z,65.67
2023-03-04T09:08:25.177Z,65.62
2023-03-04T09:10:54.852Z,65.50
2023-03-04T09:13:26.205Z,65.39
2023-03-04T09:15:53.574Z,65.28
2023-03-04T09:18:22.734Z,65.49
2023-03-04T09:20:50.183Z,65.27
2023-03-04T09:23:17.910Z,65.65
2023-03-04T09:25:49.530Z,65.41
2023-03-04T09:28:18.007Z,65.59
2023-03-04T09:30:45.135Z,65.79
2023-03-04T09:33:19.803Z,65.57
2023-03-04T09:35:48.789Z,65.58
2023-03-04T09:38:15.618Z,65.64
2023-03-04T09:40:47.018Z,65.63
2023-03-04T09:43:30.051Z,65.28
2023-03-04T09:46:08.636Z,65.65
2023-03-04T09:48:45.853Z,65.58
2023-03-04T09:51:47.879Z,65.39
2023-03-04T09:55:18.185Z,65.38
2023-03-04T09:57:58.863Z,65.46
2023-03-04T10:00:39.745Z,65.58
2023-03-04T10:03:12.092Z,65.63
2023-03-04T10:06:10.673Z,65.22
2023-03-04T10:09:04.954Z,65.26
2023-03-04T10:11:59.569Z,65.47
2023-03-04T10:14:35.796Z,65.42
2023-03-04T10:17:34.434Z,65.54
2023-03-04T10:20:47.089Z,65.21
2023-03-04T10:23:22.553Z,65.29
2023-03-04T10:25:53.758Z,65.01
2023-03-04T10:28:30.100Z,64.75
2023-03-04T10:31:29.003Z,64.95
2023-03-04T10:33:55.809Z,64.66
2023-03-04T10:36:31.575Z,64.49
2023-03-04T10:39:06.323Z,64.28
2023-03-04T10:41:33.458Z,64.31
2023-03-04T10:44:09.050Z,63.74
2023-03-04T10:46:47.891Z,64.15
2023-03-04T10:49:19.924Z,64.01
2023-03-04T10:52:11.706Z,64.02
2023-03-04T10:55:00.792Z,63.58
2023-03-04T10:57:37.999Z,63.41
2023-03-04T11:00:32.001Z,63.09
2023-03-04T11:03:37.306Z,62.88
2023-03-04T11:06:23.115Z,62.85
2023-03-04T11:09:00.862Z,62.58
2023-03-04T11:11:46.203Z,63.00
2023-03-04T11:14:28.538Z,63.02
2023-03-04T11:17:17.692Z,63.28
2023-03-04T11:19:50.718Z,61.91
2023-03-04T11:22:20.937Z,62.53
2023-03-04T11:24:58.673Z,62.73
2023-03-04T11:27:43.060Z,62.71
2023-03-04T11:30:26.924Z,62.47
2023-03-04T11:33:03.202Z,62.24
2023-03-04T11:35:48.518Z,62.22
2023-03-04T11:38:23.183Z,61.54
2023-03-04T11:40:58.080Z,61.17
2023-03-04T11:43:46.398Z,60.81
2023-03-04T11:46:51.563Z,60.63
2023-03-04T11:49:56.709Z,60.57
2023-03-04T11:52:34.039Z,60.71
2023-03-04T11:55:27.782Z,60.79
2023-03-04T11:58:35.546Z,59.11
2023-03-04T12:01:13.230Z,59.51
2023-03-04T12:04:15.017Z,59.76
2023-03-04T12:07:16.399Z,60.46
2023-03-04T12:10:00.529Z,60.05
2023-03-04T12:12:52.714Z,58.47
2023-03-04T12:15:59.478Z,59.37
2023-03-04T12:18:41.085Z,58.82
2023-03-04T12:22:02.696Z,58.94
2023-03-04T12:24:42.609Z,58.99
2023-03-04T12:28:00.561Z,59.50
2023-03-04T12:31:02.408Z,59.41
2023-03-04T12:33:49.329Z,59.18
2023-03-04T12:37:08.117Z,59.02
2023-03-04T12:39:56.964Z,58.83
2023-03-04T12:42:55.682Z,58.99
2023-03-04T12:45:49.606Z,58.49
2023-03-04T12:48:37.402Z,58.44
2023-03-04T12:51:29.242Z,57.93
2023-03-04T12:54:04.969Z,58.32
2023-03-04T12:56:43.576Z,58.56
2023-03-04T12:59:19.749Z,58.49
2023-03-04T13:02:27.619Z,58.03
2023-03-04T13:05:02.631Z,56.78
2023-03-04T13:08:16.008Z,55.00
2023-03-04T13:10:42.851Z,56.77
2023-03-04T13:13:40.324Z,57.01
2023-03-04T13:16:19.449Z,56.88
2023-03-04T13:18:46.341Z,57.04
2023-03-04T13:21:22.937Z,57.05
2023-03-04T13:23:51.163Z,57.57
2023-03-04T13:26:34.481Z,56.97
2023-03-04T13:29:13.306Z,56.82
2023-03-04T13:32:09.893Z,57.31
2023-03-04T13:34:53.706Z,57.20
2023-03-04T13:37:37.056Z,57.37
2023-03-04T13:40:27.211Z,57.56
2023-03-04T13:42:54.027Z,57.29
2023-03-04T13:45:36.157Z,56.51
2023-03-04T13:48:25.742Z,57.22
2023-03-04T13:50:53.285Z,56.86
2023-03-04T13:53:39.752Z,57.41
2023-03-04T13:56:18.492Z,57.76
2023-03-04T13:58:46.173Z,58.18
2023-03-04T14:01:30.248Z,58.09
2023-03-04T14:03:57.850Z,58.42
2023-03-04T14:06:31.946Z,58.60
2023-03-04T14:08:58.768Z,58.84
2023-03-04T14:11:42.521Z,59.02
2023-03-04T14:14:16.439Z,59.26
2023-03-04T14:16:57.637Z,59.20
2023-03-04T14:19:48.656Z,59.22
2023-03-04T14:22:38.879Z,59.35
2023-03-04T14:25:20.702Z,59.25
2023-03-04T14:27:47.883Z,59.36
2023-03-04T14:30:44.480Z,59.35
2023-03-04T14:33:19.880Z,59.72
2023-03-04T14:35:49.453Z,60.06
2023-03-04T14:38:31.097Z,60.31
2023-03-04T14:41:39.850Z,60.28
2023-03-04T14:44:35.523Z,60.25
2023-03-04T14:47:19.452Z,60.30
2023-03-04T14:49:46.767Z,60.68
2023-03-04T14:53:13.821Z,60.79
2023-03-04T14:55:40.670Z,60.37
2023-03-04T14:58:22.155Z,60.37
2023-03-04T15:00:49.475Z,60.02
2023-03-04T15:03:25.645Z,59.99
2023-03-04T15:05:54.977Z,59.50
2023-03-04T15:08:35.195Z,58.98
2023-03-04T15:11:05.659Z,59.22
2023-03-04T15:13:43.935Z,59.09
2023-03-04T15:16:13.878Z,58.72
2023-03-04T15:19:23.933Z,58.92
2023-03-04T15:21:50.693Z,58.69
2023-03-04T15:24:17.451Z,58.93
2023-03-04T15:26:45.939Z,58.59
2023-03-04T15:29:22.233Z,58.65
2023-03-04T15:31:49.439Z,58.39
2023-03-04T15:34:20.520Z,57.99
2023-03-04T15:36:50.411Z,57.97
2023-03-04T15:39:19.059Z,57.82
2023-03-04T15:41:50.430Z,57.83
2023-03-04T15:44:17.193Z,57.26
2023-03-04T15:46:43.952Z,57.84
2023-03-04T15:49:10.692Z,57.61
2023-03-04T15:51:37.510Z,57.65
2023-03-04T15:54:04.736Z,57.50
2023-03-04T15:56:33.822Z,57.10
2023-03-04T15:59:11.270Z,57.36
2023-03-04T16:01:38.309Z,57.29
2023-03-04T16:04:05.508Z,57.19
2023-03-04T16:06:32.977Z,57.57
2023-03-04T16:09:00.662Z,57.37
2023-03-04T16:11:30.564Z,56.65
2023-03-04T16:13:57.373Z,57.11
2023-03-04T16:16:24.132Z,56.69
2023-03-04T16:18:50.902Z,55.80
2023-03-04T16:21:20.445Z,55.84
2023-03-04T16:23:49.846Z,56.10
2023-03-04T16:26:26.052Z,56.02
2023-03-04T16:28:53.991Z,56.16
2023-03-04T16:31:22.142Z,55.99
2023-03-04T16:33:49.109Z,55.85
2023-03-04T16:36:23.764Z,56.18
2023-03-04T16:38:51.813Z,56.02
2023-03-04T16:41:23.136Z,56.15
2023-03-04T16:43:49.934Z,56.60
2023-03-04T16:46:16.724Z,56.34
2023-03-04T16:48:43.542Z,56.53
2023-03-04T16:51:17.258Z,56.32
2023-03-04T16:53:50.132Z,57.04
2023-03-04T16:56:18.763Z,57.00
2023-03-04T16:58:46.521Z,57.00
2023-03-04T17:01:19.318Z,56.82
2023-03-04T17:03:46.462Z,56.79
2023-03-04T17:06:14.935Z,57.08
2023-03-04T17:08:43.264Z,56.79
2023-03-04T17:11:19.391Z,56.90
2023-03-04T17:13:46.593Z,57.01
2023-03-04T17:16:15.078Z,57.02
2023-03-04T17:18:42.550Z,57.08
2023-03-04T17:21:15.121Z,56.82
2023-03-04T17:23:41.923Z,56.87
2023-03-04T17:26:09.309Z,57.09
2023-03-04T17:28:37.199Z,56.71
2023-03-04T17:31:12.247Z,56.62
2023-03-04T17:33:39.192Z,57.15
2023-03-04T17:36:06.372Z,56.63
2023-03-04T17:38:33.922Z,57.13
2023-03-04T17:41:09.255Z,56.88
2023-03-04T17:43:36.049Z,56.88
2023-03-04T17:46:09.263Z,56.89
2023-03-04T17:48:36.224Z,56.80
2023-03-04T17:51:03.466Z,56.98
2023-03-04T17:53:30.600Z,56.88
2023-03-04T17:56:00.738Z,56.73
2023-03-04T17:58:29.271Z,56.97
2023-03-04T18:01:03.733Z,56.93
2023-03-04T18:03:30.636Z,56.82
2023-03-04T18:05:57.569Z,56.92
2023-03-04T18:08:24.378Z,56.79
2023-03-04T18:10:51.180Z,56.99
2023-03-04T18:13:17.983Z,56.76
2023-03-04T18:15:44.754Z,56.92
2023-03-04T18:18:12.813Z,57.01
2023-03-04T18:20:39.561Z,56.86
2023-03-04T18:23:06.431Z,56.91
2023-03-04T18:25:33.202Z,57.16
2023-03-04T18:27:59.985Z,57.01
2023-03-04T18:30:27.440Z,56.97
2023-03-04T18:32:59.541Z,56.97
2023-03-04T18:35:26.779Z,56.73
2023-03-04T18:37:53.585Z,56.85
2023-03-04T18:40:21.086Z,56.94
2023-03-04T18:42:47.888Z,57.18
2023-03-04T18:45:16.027Z,56.63
2023-03-04T18:47:49.762Z,56.81
2023-03-04T18:50:17.422Z,56.81
2023-03-04T18:52:44.738Z,56.73
2023-03-04T18:55:12.922Z,56.94
2023-03-04T18:57:42.922Z,56.93
2023-03-04T19:00:11.340Z,56.88
2023-03-04T19:02:47.820Z,56.64
2023-03-04T19:05:23.187Z,56.88
2023-03-04T19:07:50.071Z,56.65
2023-03-04T19:10:18.580Z,56.83
2023-03-04T19:12:45.476Z,56.90
2023-03-04T19:15:13.609Z,56.54
2023-03-04T19:17:40.867Z,56.62
2023-03-04T19:20:09.574Z,56.70
2023-03-04T19:22:36.669Z,56.95
2023-03-04T19:25:04.060Z,56.66
2023-03-04T19:27:32.357Z,56.82
2023-03-04T19:29:59.142Z,56.61
2023-03-04T19:32:26.172Z,56.85
2023-03-04T19:34:53.020Z,56.51
2023-03-04T19:37:19.911Z,56.37
2023-03-04T19:39:48.936Z,56.55
2023-03-04T19:42:16.002Z,56.39
2023-03-04T19:44:44.870Z,56.42
2023-03-04T19:47:11.921Z,56.03
2023-03-04T19:49:38.920Z,55.71
2023-03-04T19:52:05.793Z,56.01
2023-03-04T19:54:32.679Z,55.61
2023-03-04T19:56:59.444Z,55.68
2023-03-04T19:59:26.499Z,55.91
2023-03-04T20:01:54.153Z,55.63
2023-03-04T20:04:21.818Z,55.66
2023-03-04T20:06:50.994Z,55.37
2023-03-04T20:09:19.435Z,55.58
2023-03-04T20:12:02.523Z,55.80
2023-03-04T20:14:32.231Z,55.89
2023-03-04T20:17:03.379Z,55.98
2023-03-04T20:19:31.816Z,55.85
2023-03-04T20:21:59.190Z,55.97
2023-03-04T20:24:26.567Z,55.92
2023-03-04T20:26:53.828Z,56.18
2023-03-04T20:29:20.587Z,56.41
2023-03-04T20:31:48.150Z,56.08
2023-03-04T20:34:15.880Z,56.49
2023-03-04T20:36:42.728Z,56.74
2023-03-04T20:39:27.614Z,56.54
2023-03-04T20:41:56.484Z,56.59
2023-03-04T20:44:23.309Z,56.55
2023-03-04T20:46:51.155Z,56.78
2023-03-04T20:49:23.725Z,56.77
2023-03-04T20:51:56.318Z,57.13
2023-03-04T20:54:38.919Z,56.97
2023-03-04T20:57:08.337Z,57.21
2023-03-04T20:59:35.855Z,57.17
2023-03-04T21:02:02.723Z,57.43
2023-03-04T21:04:31.875Z,57.21
2023-03-04T21:06:59.325Z,57.42
2023-03-04T21:09:26.708Z,57.36
2023-03-04T21:11:54.259Z,57.34
2023-03-04T21:14:25.687Z,57.37
2023-03-04T21:16:56.539Z,57.48
2023-03-04T21:19:30.351Z,57.55
2023-03-04T21:21:58.374Z,57.56
2023-03-04T21:24:29.881Z,57.90
2023-03-04T21:26:56.907Z,57.61
2023-03-04T21:29:26.794Z,57.58
2023-03-04T21:32:22.477Z,57.36
2023-03-04T21:34:52.199Z,57.64
2023-03-04T21:37:20.593Z,57.85
2023-03-04T21:39:47.422Z,57.80
2023-03-04T21:42:14.241Z,57.78
2023-03-04T21:44:49.180Z,57.74
2023-03-04T21:47:17.486Z,57.99
2023-03-04T21:49:44.285Z,57.97
2023-03-04T21:52:11.148Z,57.74
2023-03-04T21:54:37.907Z,58.10
2023-03-04T21:57:04.707Z,57.86
2023-03-04T21:59:31.554Z,58.00
2023-03-04T22:01:58.439Z,58.04
2023-03-04T22:04:25.214Z,58.06
2023-03-04T22:06:51.984Z,58.14
2023-03-04T22:09:18.906Z,58.35
2023-03-04T22:11:45.740Z,58.03
2023-03-04T22:14:12.781Z,58.06
2023-03-04T22:16:54.058Z,58.22
2023-03-04T22:19:27.343Z,58.69
2023-03-04T22:21:54.465Z,58.33
2023-03-04T22:24:22.970Z,58.33
2023-03-04T22:26:49.771Z,58.25
2023-03-04T22:29:16.560Z,58.44
2023-03-04T22:31:43.435Z,58.57
2023-03-04T22:34:14.148Z,58.58
2023-03-04T22:36:44.877Z,58.64
2023-03-04T22:39:14.868Z,58.85
2023-03-04T22:41:41.882Z,58.69
2023-03-04T22:44:08.706Z,58.98
2023-03-04T22:46:38.737Z,58.77
2023-03-04T22:49:11.557Z,58.90
2023-03-04T22:51:43.909Z,58.78
2023-03-04T22:54:14.175Z,58.74
2023-03-04T22:56:41.141Z,58.99
2023-03-04T22:59:07.947Z,58.78
2023-03-04T23:01:34.882Z,58.96
2023-03-04T23:04:02.161Z,58.93
2023-03-04T23:06:30.372Z,58.92
2023-03-04T23:08:59.133Z,58.97
2023-03-04T23:11:29.942Z,59.04
2023-03-04T23:13:57.151Z,59.07
2023-03-04T23:16:25.337Z,59.28
2023-03-04T23:18:53.224Z,59.33
2023-03-04T23:21:25.341Z,58.99
2023-03-04T23:23:52.547Z,59.14
2023-03-04T23:26:21.876Z,59.47
2023-03-04T23:28:49.122Z,59.13
2023-03-04T23:31:16.636Z,59.18
2023-03-04T23:33:45.104Z,59.35
2023-03-04T23:36:15.677Z,59.09
2023-03-04T23:38:48.193Z,58.95
2023-03-04T23:41:22.742Z,59.15
2023-03-04T23:43:51.877Z,59.05
2023-03-04T23:46:19.473Z,59.19
2023-03-04T23:48:46.798Z,59.02
2023-03-04T23:51:16.764Z,59.59
2023-03-04T23:53:43.979Z,59.28
2023-03-04T23:56:14.499Z,59.24
2023-03-04T23:58:42.665Z,59.48
